Time;durP1;ratioP1;P1;durP2;ratioP2;P2;SDS_P1;SDS_P2;PMS_P1;PMS_P2;Temp;Humidity;BMP_temperature;BMP_pressure;BME280_temperature;BME280_humidity;BME280_pressure;Samples;Min_cycle;Max_cycle;Signal;HPM_P1;HPM_P2
2024/01/11 00:01:18;;;;;;;343.23;143.53;;;;;;;-5.20;55.66;101604.03;5014423;28;100412;-85
2024/01/11 00:03:43;;;;;;;329.37;145.87;;;;;;;-5.33;56.66;101587.16;5030451;28;98081;-85
2024/01/11 00:06:09;;;;;;;325.30;141.63;;;;;;;-5.13;56.01;101606.09;5013530;28;96933;-87
2024/01/11 00:08:34;;;;;;;326.93;137.37;;;;;;;-5.61;56.04;101538.81;5013695;28;97299;-86
2024/01/11 00:11:00;;;;;;;320.40;141.23;;;;;;;-5.37;55.63;101581.03;5030898;28;98186;-85
2024/01/11 00:13:25;;;;;;;333.43;141.67;;;;;;;-5.52;56.15;101539.31;4987675;28;101374;-85
2024/01/11 00:15:51;;;;;;;333.10;139.93;;;;;;;-5.18;55.78;101584.50;5010966;28;97017;-85
2024/01/11 00:18:17;;;;;;;321.57;139.73;;;;;;;-5.25;56.35;101579.06;4988753;28;96896;-85
2024/01/11 00:20:43;;;;;;;334.30;140.33;;;;;;;-5.08;55.42;101577.34;5013343;28;98202;-86
2024/01/11 00:23:08;;;;;;;313.53;135.77;;;;;;;-5.30;56.11;101547.25;4993205;28;100320;-89
2024/01/11 00:25:34;;;;;;;331.30;138.80;;;;;;;-5.29;55.89;101537.91;5008823;28;96836;-86
2024/01/11 00:28:02;;;;;;;320.10;134.27;;;;;;;-5.16;55.37;101563.28;5010903;28;96818;-85
2024/01/11 00:30:27;;;;;;;338.07;139.43;;;;;;;-5.23;55.63;101548.44;5012382;28;101826;-86
2024/01/11 00:32:53;;;;;;;344.77;137.97;;;;;;;-5.30;55.63;101547.25;4993213;28;101226;-85
2024/01/11 00:35:18;;;;;;;316.50;134.90;;;;;;;-5.46;55.79;101535.38;5029186;28;97055;-86
2024/01/11 00:37:45;;;;;;;319.73;139.47;;;;;;;-5.24;56.26;101578.28;5030254;28;96816;-86
2024/01/11 00:40:11;;;;;;;332.03;141.13;;;;;;;-5.29;56.38;101556.69;5012887;28;98174;-87
2024/01/11 00:42:36;;;;;;;337.40;142.13;;;;;;;-5.48;56.19;101534.41;4992814;28;101184;-85
2024/01/11 00:45:02;;;;;;;315.77;137.20;;;;;;;-5.60;55.86;101513.34;5030492;28;96659;-86
2024/01/11 00:47:27;;;;;;;327.47;137.90;;;;;;;-5.82;55.97;101472.13;5011572;28;96802;-86
2024/01/11 00:49:53;;;;;;;320.30;135.60;;;;;;;-5.34;56.85;101540.22;5028494;28;101489;-86
2024/01/11 00:52:19;;;;;;;324.83;136.37;;;;;;;-5.57;56.88;101494.69;5011648;28;101331;-86
2024/01/11 00:54:45;;;;;;;323.63;133.17;;;;;;;-5.48;56.95;101521.63;4998909;28;96853;-85
2024/01/11 00:57:10;;;;;;;304.00;130.90;;;;;;;-5.77;56.95;101471.53;4985313;28;96778;-85
2024/01/11 00:59:36;;;;;;;303.57;130.50;;;;;;;-5.40;56.29;101524.56;5007753;28;98294;-85
2024/01/11 01:02:01;;;;;;;343.27;133.87;;;;;;;-5.38;56.34;101535.75;4992889;28;100370;-86
2024/01/11 01:04:27;;;;;;;320.63;135.43;;;;;;;-5.39;56.99;101533.13;4992412;28;97667;-85
2024/01/11 01:06:52;;;;;;;320.80;129.50;;;;;;;-5.50;56.64;101509.53;4994251;28;96711;-86
2024/01/11 01:09:18;;;;;;;297.87;129.87;;;;;;;-5.39;56.73;101538.22;4981890;28;101538;-86
2024/01/11 01:11:43;;;;;;;305.77;125.70;;;;;;;-5.37;56.47;101534.94;5012343;28;98380;-86
2024/01/11 01:14:09;;;;;;;298.93;127.87;;;;;;;-5.39;56.49;101507.53;5010961;28;97042;-88
2024/01/11 01:16:34;;;;;;;311.50;128.50;;;;;;;-5.48;57.00;101490.91;4991439;28;96976;-86
2024/01/11 01:19:00;;;;;;;310.20;130.93;;;;;;;-5.30;56.23;101528.44;5011484;28;101413;-85
2024/01/11 01:21:25;;;;;;;296.17;123.90;;;;;;;-5.35;56.93;101525.69;5005579;28;98413;-86
2024/01/11 01:23:51;;;;;;;294.47;124.10;;;;;;;-5.33;56.42;101520.63;4974780;28;96988;-85
2024/01/11 01:26:16;;;;;;;317.13;127.30;;;;;;;-5.23;56.42;101520.28;5007974;28;96911;-85
2024/01/11 01:28:42;;;;;;;291.67;123.37;;;;;;;-5.28;56.49;101524.28;5011040;28;98365;-89
2024/01/11 01:31:07;;;;;;;314.33;131.13;;;;;;;-5.50;56.92;101495.09;4974680;28;101412;-86
2024/01/11 01:33:33;;;;;;;299.50;124.57;;;;;;;-5.52;56.70;101488.13;5016242;28;97233;-85
2024/01/11 01:35:58;;;;;;;291.37;125.60;;;;;;;-5.42;56.98;101526.16;4982104;28;97399;-85
2024/01/11 01:38:24;;;;;;;309.53;130.20;;;;;;;-5.50;56.92;101513.00;4997579;28;97584;-85
2024/01/11 01:40:50;;;;;;;290.73;125.23;;;;;;;-5.53;56.65;101504.28;4995633;28;98194;-85
2024/01/11 01:43:15;;;;;;;312.63;128.30;;;;;;;-5.50;56.71;101532.56;4994181;28;96790;-85
2024/01/11 01:45:41;;;;;;;299.97;124.97;;;;;;;-5.47;56.93;101512.25;4976040;28;97155;-85
2024/01/11 01:48:07;;;;;;;290.07;120.60;;;;;;;-5.84;56.89;101451.59;5009857;28;98571;-86
2024/01/11 01:50:32;;;;;;;294.40;119.60;;;;;;;-5.66;56.98;101490.00;5000787;28;98373;-86
2024/01/11 01:52:58;;;;;;;273.47;116.17;;;;;;;-5.50;56.74;101502.78;5017123;28;96639;-85
2024/01/11 01:55:25;;;;;;;272.13;115.43;;;;;;;-5.47;56.95;101507.13;5017432;28;97120;-90
2024/01/11 01:57:51;;;;;;;296.73;119.50;;;;;;;-5.58;57.00;101488.72;4995954;28;100337;-85
2024/01/11 02:00:17;;;;;;;289.67;115.23;;;;;;;-5.49;57.36;101511.31;5015436;28;101481;-85
2024/01/11 02:02:50;;;;;;;282.80;119.60;;;;;;;-5.46;56.75;101512.34;5005844;28;96749;-87
2024/01/11 02:05:16;;;;;;;283.73;119.20;;;;;;;-5.43;57.13;101534.66;5002644;28;96772;-86
2024/01/11 02:07:42;;;;;;;279.17;116.30;;;;;;;-5.68;56.51;101486.47;5032102;28;97127;-86
2024/01/11 02:10:08;;;;;;;282.80;118.77;;;;;;;-5.62;56.81;101497.00;5025368;28;98386;-86
2024/01/11 02:12:36;;;;;;;264.93;113.67;;;;;;;-5.40;56.85;101537.38;5015000;28;97440;-85
2024/01/11 02:15:03;;;;;;;288.23;121.17;;;;;;;-5.52;56.82;101527.38;5015689;28;96700;-85
2024/01/11 02:17:29;;;;;;;289.63;118.17;;;;;;;-5.43;57.13;101544.03;5015441;28;98005;-85
2024/01/11 02:19:55;;;;;;;291.83;114.33;;;;;;;-5.49;56.54;101514.75;5031690;27;97290;-85
2024/01/11 02:22:32;;;;;;;275.93;119.77;;;;;;;-5.48;56.91;101528.41;5030095;28;96737;-85
2024/01/11 02:24:58;;;;;;;267.27;114.27;;;;;;;-5.50;56.70;101520.69;5014334;28;97450;-86
2024/01/11 02:27:23;;;;;;;273.33;115.53;;;;;;;-5.40;56.57;101521.13;5012951;28;98500;-86
2024/01/11 02:29:49;;;;;;;283.20;113.30;;;;;;;-5.63;56.87;101500.38;5015318;28;98027;-85
2024/01/11 02:32:14;;;;;;;273.90;116.03;;;;;;;-5.49;56.42;101509.63;5027513;28;96735;-86
2024/01/11 02:34:41;;;;;;;285.37;115.50;;;;;;;-5.42;57.28;101526.16;5022921;28;96806;-85
2024/01/11 02:37:07;;;;;;;261.53;112.00;;;;;;;-5.42;57.09;101505.69;4995762;28;101203;-85
2024/01/11 02:39:32;;;;;;;268.50;112.33;;;;;;;-5.43;56.90;101523.53;5001566;28;98439;-85
2024/01/11 02:41:59;;;;;;;271.60;115.73;;;;;;;-5.45;57.20;101500.41;5014447;28;96960;-85
2024/01/11 02:44:25;;;;;;;268.03;111.73;;;;;;;-5.42;56.45;101474.97;4998973;28;97238;-86
2024/01/11 02:46:50;;;;;;;261.80;112.33;;;;;;;-5.55;56.65;101467.50;4997997;28;101040;-85
2024/01/11 02:49:16;;;;;;;280.80;111.63;;;;;;;-5.48;57.27;101475.53;5012662;28;98487;-85
2024/01/11 02:51:41;;;;;;;269.77;111.57;;;;;;;-5.47;57.25;101473.88;5031861;28;96889;-85
2024/01/11 02:54:07;;;;;;;275.90;112.17;;;;;;;-5.59;57.38;101453.66;4990999;28;97161;-85
2024/01/11 02:56:32;;;;;;;273.97;115.57;;;;;;;-5.60;57.55;101449.38;4995026;28;98059;-86
2024/01/11 02:58:58;;;;;;;267.77;112.00;;;;;;;-5.65;57.44;101427.78;5015288;28;98374;-85
2024/01/11 03:01:23;;;;;;;268.73;107.70;;;;;;;-5.75;57.54;101400.88;4999159;28;97029;-85
2024/01/11 03:03:49;;;;;;;253.37;103.67;;;;;;;-5.68;57.39;101425.06;4978264;28;96804;-85
2024/01/11 03:06:14;;;;;;;255.30;106.97;;;;;;;-5.65;57.56;101439.69;4993576;28;98545;-85
2024/01/11 03:08:40;;;;;;;254.50;105.50;;;;;;;-5.70;57.13;101422.47;4991165;28;100103;-85
2024/01/11 03:11:05;;;;;;;245.17;107.60;;;;;;;-5.43;57.92;101457.00;5005235;28;97442;-85
2024/01/11 03:13:31;;;;;;;250.40;102.00;;;;;;;-5.51;57.71;101444.69;4988056;28;96780;-85
2024/01/11 03:15:57;;;;;;;258.40;106.07;;;;;;;-5.46;57.82;101439.81;4987160;28;101394;-85
2024/01/11 03:18:22;;;;;;;245.63;103.63;;;;;;;-5.33;57.31;101443.81;5011097;28;97328;-85
2024/01/11 03:20:48;;;;;;;239.73;99.03;;;;;;;-5.37;57.43;101429.13;5027919;28;97036;-86
2024/01/11 03:23:13;;;;;;;235.90;100.43;;;;;;;-5.38;57.80;101441.06;4994508;28;97016;-85
2024/01/11 03:25:39;;;;;;;238.60;99.03;;;;;;;-5.35;57.46;101450.53;5007522;28;101531;-85
2024/01/11 03:28:05;;;;;;;244.93;101.63;;;;;;;-5.34;57.74;101434.41;4981565;28;100993;-86
2024/01/11 03:30:30;;;;;;;243.07;99.10;;;;;;;-5.42;57.56;101428.91;5013615;28;96682;-87
2024/01/11 03:32:55;;;;;;;236.00;101.60;;;;;;;-5.42;57.32;101439.16;4990623;28;97066;-84
2024/01/11 03:35:21;;;;;;;232.33;99.20;;;;;;;-5.42;57.36;101445.94;5010531;28;98003;-85
2024/01/11 03:37:47;;;;;;;235.53;94.70;;;;;;;-5.53;57.55;101424.94;4993907;28;100263;-85
2024/01/11 03:40:12;;;;;;;242.53;101.03;;;;;;;-5.31;57.73;101460.16;4993916;28;96749;-85
2024/01/11 03:42:38;;;;;;;257.63;104.20;;;;;;;-5.26;57.27;101453.56;4977243;28;96884;-86
2024/01/11 03:45:04;;;;;;;255.83;104.73;;;;;;;-5.21;57.04;101457.19;5010197;28;101662;-85
2024/01/11 03:47:30;;;;;;;257.67;104.13;;;;;;;-5.25;57.60;101443.38;4993649;28;98429;-86
2024/01/11 03:49:55;;;;;;;250.90;103.63;;;;;;;-5.46;57.38;101412.53;4992948;28;97590;-85
2024/01/11 03:52:21;;;;;;;243.50;100.27;;;;;;;-5.40;57.37;101458.03;4974380;28;97131;-85
2024/01/11 03:54:46;;;;;;;236.00;100.13;;;;;;;-5.49;57.60;101445.66;4998865;28;102059;-85
2024/01/11 03:57:12;;;;;;;244.97;101.30;;;;;;;-5.54;57.69;101441.13;5022627;28;98049;-85
2024/01/11 03:59:37;;;;;;;243.23;96.80;;;;;;;-5.30;56.96;101467.00;5012865;28;97376;-85
2024/01/11 04:02:03;;;;;;;235.27;100.30;;;;;;;-5.36;56.92;101476.94;4992945;28;97103;-86
2024/01/11 04:04:29;;;;;;;219.40;97.27;;;;;;;-5.29;57.49;101477.34;5012231;28;101619;-86
2024/01/11 04:06:54;;;;;;;219.77;94.27;;;;;;;-5.30;57.17;101464.44;5030125;28;98521;-85
2024/01/11 04:09:20;;;;;;;228.43;93.63;;;;;;;-5.38;57.00;101448.75;4998495;28;97126;-85
2024/01/11 04:11:46;;;;;;;233.60;98.57;;;;;;;-5.20;56.97;101468.34;5021293;28;96818;-86
2024/01/11 04:14:12;;;;;;;222.73;95.73;;;;;;;-5.20;57.12;101456.41;5011672;28;101376;-85
2024/01/11 04:16:44;;;;;;;233.27;95.73;;;;;;;-5.50;57.42;101425.09;5008465;28;100389;-85
2024/01/11 04:19:10;;;;;;;;;;;;;;;-5.25;56.82;101465.56;4987915;28;97829;-86
2024/01/11 04:21:38;;;;;;;238.83;93.97;;;;;;;-5.27;57.43;101456.91;4995567;28;96865;-85
2024/01/11 04:24:04;;;;;;;243.53;100.30;;;;;;;-5.48;57.83;101414.13;4983309;28;102249;-84
2024/01/11 04:26:29;;;;;;;223.90;94.83;;;;;;;-5.35;57.57;101445.44;5013571;28;98461;-85
2024/01/11 04:28:57;;;;;;;218.13;94.27;;;;;;;-5.53;57.48;101418.13;4996653;28;96781;-85
2024/01/11 04:31:22;;;;;;;214.97;92.07;;;;;;;-5.35;57.46;101435.19;5029497;28;97041;-86
2024/01/11 04:33:48;;;;;;;220.00;92.37;;;;;;;-5.37;57.44;101429.13;5030241;28;98609;-85
2024/01/11 04:36:13;;;;;;;221.13;93.60;;;;;;;-5.62;57.66;101381.88;5013807;28;98474;-86
2024/01/11 04:38:39;;;;;;;216.80;90.87;;;;;;;-5.35;57.36;101433.53;5011615;28;96891;-86
2024/01/11 04:41:12;;;;;;;206.80;87.60;;;;;;;-5.42;57.29;101421.22;4996879;28;96912;-85
2024/01/11 04:43:44;;;;;;;206.63;88.90;;;;;;;-5.19;57.41;101452.16;4996329;28;101284;-86
2024/01/11 04:46:20;;;;;;;229.38;89.57;;;;;;;-5.29;57.01;101436.38;5020391;28;98472;-85
2024/01/11 04:48:46;;;;;;;211.63;90.40;;;;;;;-5.26;57.22;101431.41;4996584;28;96871;-86
2024/01/11 04:51:13;;;;;;;224.07;90.73;;;;;;;-5.28;57.34;101424.44;5016744;28;96908;-85
2024/01/11 04:53:42;;;;;;;210.43;90.60;;;;;;;-5.32;57.90;101432.81;4998806;28;100371;-84
2024/01/11 04:56:09;;;;;;;210.23;88.40;;;;;;;-5.50;57.25;101390.16;5002899;27;101225;-86
2024/01/11 04:58:35;;;;;;;219.60;88.87;;;;;;;-5.21;57.67;101438.41;5019963;27;96916;-86
2024/01/11 05:01:00;;;;;;;211.23;88.03;;;;;;;-5.24;57.70;101439.13;5001300;27;96829;-85
2024/01/11 05:03:26;;;;;;;213.43;89.47;;;;;;;-5.24;57.69;101417.00;5023637;28;100369;-85
2024/01/11 05:05:51;;;;;;;229.37;91.67;;;;;;;-5.12;57.19;101423.47;5033719;27;101263;-83
2024/01/11 05:08:17;;;;;;;199.60;85.03;;;;;;;-5.27;57.83;101404.03;4999318;28;98137;-85
2024/01/11 05:10:44;;;;;;;205.80;86.37;;;;;;;-5.31;57.28;101389.34;5020057;27;96928;-91
2024/01/11 05:13:10;;;;;;;212.17;86.83;;;;;;;-5.50;58.07;101349.22;5003079;27;101862;-86
2024/01/11 05:15:35;;;;;;;190.77;81.53;;;;;;;-5.22;57.93;101386.34;5012384;27;101429;-86
2024/01/11 05:18:01;;;;;;;187.00;78.57;;;;;;;-5.20;57.58;101384.75;5018968;27;97076;-85
2024/01/11 05:20:26;;;;;;;172.57;69.90;;;;;;;-5.22;57.58;101372.66;5019023;27;96855;-85
2024/01/11 05:22:52;;;;;;;162.70;70.20;;;;;;;-5.12;57.70;101374.81;5019456;27;100584;-85
2024/01/11 05:25:17;;;;;;;155.07;68.70;;;;;;;-5.29;57.31;101346.78;5013017;28;101719;-85
2024/01/11 05:27:43;;;;;;;151.90;67.37;;;;;;;-4.95;57.35;101394.41;5011773;27;96830;-86
2024/01/11 05:30:09;;;;;;;172.77;71.07;;;;;;;-4.99;57.62;101387.41;5020663;27;97425;-86
2024/01/11 05:32:35;;;;;;;168.93;72.60;;;;;;;-4.98;57.36;101375.47;5019178;27;98130;-85
2024/01/11 05:35:00;;;;;;;166.47;68.30;;;;;;;-4.85;57.10;101373.53;5033648;27;97857;-85
2024/01/11 05:37:26;;;;;;;162.57;70.37;;;;;;;-4.79;57.17;101362.69;5015919;28;97162;-85
2024/01/11 05:39:51;;;;;;;148.33;65.40;;;;;;;-4.96;57.09;101346.56;5022554;27;96749;-85
2024/01/11 05:42:18;;;;;;;152.97;63.67;;;;;;;-5.20;56.76;101292.56;5022141;28;98126;-85
2024/01/11 05:44:44;;;;;;;151.20;62.57;;;;;;;-4.87;56.52;101333.28;5033369;27;98865;-86
2024/01/11 05:47:09;;;;;;;138.60;62.27;;;;;;;-4.86;56.61;101307.75;5018844;27;97051;-85
2024/01/11 05:49:35;;;;;;;150.37;61.67;;;;;;;-4.82;56.16;101311.31;5005196;28;97104;-84
2024/01/11 05:52:00;;;;;;;145.00;62.73;;;;;;;-4.70;56.79;101322.09;4988396;27;100108;-85
2024/01/11 05:54:28;;;;;;;143.33;60.77;;;;;;;-4.69;56.56;101323.84;5000020;27;100131;-85
2024/01/11 05:56:56;;;;;;;137.23;60.30;;;;;;;-4.79;56.80;101330.25;5052948;27;97280;-85
2024/01/11 05:59:21;;;;;;;144.43;61.93;;;;;;;-4.74;56.73;101343.28;5024216;27;98233;-85
2024/01/11 06:01:48;;;;;;;141.23;59.70;;;;;;;-4.90;57.59;101305.84;5007911;27;99165;-85
2024/01/11 06:04:14;;;;;;;146.27;62.13;;;;;;;-5.02;57.20;101292.50;5007707;27;101409;-85
2024/01/11 06:06:40;;;;;;;150.67;60.77;;;;;;;-4.59;57.56;101356.75;5010973;27;96960;-86
2024/01/11 06:09:06;;;;;;;134.40;58.83;;;;;;;-4.60;57.56;101356.69;5024774;27;96897;-85
2024/01/11 06:11:31;;;;;;;133.33;56.00;;;;;;;-4.54;57.65;101351.81;5010309;27;101502;-85
2024/01/11 06:13:57;;;;;;;132.70;55.80;;;;;;;-4.48;57.78;101346.09;4995988;27;101252;-85
2024/01/11 06:16:23;;;;;;;133.37;57.23;;;;;;;-4.58;57.22;101314.06;5015824;27;96869;-85
2024/01/11 06:18:48;;;;;;;127.80;54.13;;;;;;;-4.45;56.96;101323.16;4994696;27;97258;-85
2024/01/11 06:21:16;;;;;;;129.33;55.27;;;;;;;-4.42;57.10;101298.53;4985843;27;101380;-86
2024/01/11 06:23:43;;;;;;;129.07;54.63;;;;;;;-4.40;57.15;101293.47;5019751;27;101233;-85
2024/01/11 06:26:09;;;;;;;117.27;51.03;;;;;;;-4.55;56.44;101274.06;5015981;27;96970;-89
2024/01/11 06:28:34;;;;;;;128.57;51.70;;;;;;;-4.52;56.85;101272.44;4998206;28;97230;-85
2024/01/11 06:31:00;;;;;;;127.17;52.43;;;;;;;-4.52;56.39;101255.38;5009768;27;101555;-85
2024/01/11 06:33:25;;;;;;;120.73;51.63;;;;;;;-4.23;56.92;101295.03;5017310;27;101393;-85
2024/01/11 06:35:51;;;;;;;121.30;52.13;;;;;;;-4.33;57.77;101291.22;5018023;27;96957;-87
2024/01/11 06:38:16;;;;;;;117.53;48.17;;;;;;;-4.15;57.17;101308.19;5022927;27;96859;-85
2024/01/11 06:40:43;;;;;;;110.90;49.57;;;;;;;-4.15;57.61;101297.94;5017370;27;101627;-85
2024/01/11 06:43:08;;;;;;;123.10;53.53;;;;;;;-4.16;57.42;101294.50;4999823;27;101693;-87
2024/01/11 06:45:34;;;;;;;120.87;53.23;;;;;;;-4.04;57.67;101326.56;5024229;27;97501;-88
2024/01/11 06:47:59;;;;;;;117.70;48.40;;;;;;;-3.96;57.28;101336.31;5014272;28;97678;-86
2024/01/11 06:50:25;;;;;;;117.60;50.90;;;;;;;-4.10;57.70;101304.13;5019851;27;101352;-84
2024/01/11 06:52:50;;;;;;;115.53;49.43;;;;;;;-4.07;57.89;101327.34;5036048;27;98587;-85
2024/01/11 06:55:16;;;;;;;113.83;47.87;;;;;;;-4.17;57.60;101291.84;5044081;27;96824;-84
2024/01/11 06:57:41;;;;;;;103.43;47.10;;;;;;;-3.83;57.82;101331.72;5004311;27;96991;-84
2024/01/11 07:00:07;;;;;;;117.60;50.37;;;;;;;-4.13;57.49;101276.66;5023351;28;101290;-88
2024/01/11 07:02:33;;;;;;;108.27;44.27;;;;;;;-3.82;57.74;101318.06;4999457;27;101305;-88
2024/01/11 07:04:58;;;;;;;107.10;45.73;;;;;;;-4.20;57.68;101243.00;5013844;27;97232;-87
2024/01/11 07:07:24;;;;;;;106.33;46.43;;;;;;;-3.73;57.50;101313.28;5001633;27;96820;-89
2024/01/11 07:09:50;;;;;;;105.70;45.60;;;;;;;-3.81;57.70;101281.31;4998906;27;101162;-88
2024/01/11 07:12:15;;;;;;;93.57;42.83;;;;;;;-3.67;57.29;101299.00;5018527;28;98133;-89
2024/01/11 07:14:42;;;;;;;101.87;43.77;;;;;;;-3.69;57.96;101289.50;5023160;27;96739;-89
2024/01/11 07:17:07;;;;;;;93.27;40.93;;;;;;;-3.72;57.44;101267.16;5026401;27;96788;-89
2024/01/11 07:19:33;;;;;;;103.83;42.40;;;;;;;-3.65;57.77;101274.28;5028653;27;98516;-87
2024/01/11 07:21:58;;;;;;;93.33;40.00;;;;;;;-3.63;57.33;101278.63;5052015;27;98400;-89
2024/01/11 07:24:25;;;;;;;87.73;37.93;;;;;;;-3.73;58.28;101267.09;4997689;27;97222;-89
2024/01/11 07:26:50;;;;;;;76.90;35.83;;;;;;;-3.62;57.69;101270.09;5025775;27;97274;-87
2024/01/11 07:29:16;;;;;;;89.57;38.17;;;;;;;-3.53;58.08;101266.16;5018140;28;98255;-86
2024/01/11 07:31:41;;;;;;;76.83;32.90;;;;;;;-3.57;57.96;101250.63;5048582;27;98471;-85
2024/01/11 07:34:07;;;;;;;69.57;33.60;;;;;;;-3.61;58.18;101243.59;4995928;28;97562;-85
2024/01/11 07:36:32;;;;;;;67.00;28.73;;;;;;;-3.54;58.01;101255.88;4995239;27;97027;-86
2024/01/11 07:38:58;;;;;;;71.67;33.73;;;;;;;-3.85;58.12;101195.66;4989587;28;101372;-86
2024/01/11 07:41:23;;;;;;;62.23;27.83;;;;;;;-3.54;58.15;101223.34;5009803;27;99519;-86
2024/01/11 07:43:49;;;;;;;57.63;26.67;;;;;;;-3.69;58.17;101203.13;5032118;27;97452;-85
2024/01/11 07:46:14;;;;;;;58.37;25.63;;;;;;;-3.36;58.28;101223.16;4997359;27;96969;-87
2024/01/11 07:48:40;;;;;;;59.80;25.83;;;;;;;-3.44;57.60;101204.91;5046452;27;98311;-85
2024/01/11 07:51:05;;;;;;;51.33;25.07;;;;;;;-3.12;58.37;101238.56;5015573;27;98181;-85
2024/01/11 07:53:31;;;;;;;56.27;23.43;;;;;;;-3.14;58.10;101241.91;5015396;27;96816;-85
2024/01/11 07:55:57;;;;;;;56.13;24.83;;;;;;;-3.06;58.33;101243.06;5022054;27;96784;-86
2024/01/11 07:58:23;;;;;;;54.10;23.57;;;;;;;-2.99;57.44;101247.63;5004967;28;100091;-86
2024/01/11 08:00:49;;;;;;;54.97;24.10;;;;;;;-3.10;57.83;101202.69;5015632;27;98154;-86
2024/01/11 08:03:15;;;;;;;50.13;23.90;;;;;;;-3.23;57.36;101193.66;4999270;27;97628;-88
2024/01/11 08:05:40;;;;;;;49.73;23.83;;;;;;;-2.92;57.41;101223.00;5011928;27;96744;-85
2024/01/11 08:08:06;;;;;;;49.50;21.83;;;;;;;-3.14;57.77;101180.25;5031389;27;100236;-85
2024/01/11 08:10:32;;;;;;;49.27;23.17;;;;;;;-2.65;57.75;101233.34;5022921;28;98917;-86
2024/01/11 08:12:59;;;;;;;47.37;22.00;;;;;;;-2.59;57.72;101224.19;5013938;27;96828;-85
2024/01/11 08:15:25;;;;;;;52.27;23.10;;;;;;;-2.41;57.44;101244.47;5000413;27;96979;-87
2024/01/11 08:17:50;;;;;;;50.83;25.83;;;;;;;-2.30;57.24;101237.09;5014015;27;101565;-85
2024/01/11 08:20:16;;;;;;;49.90;22.73;;;;;;;-2.02;57.23;101226.00;5032518;27;97885;-86
2024/01/11 08:22:43;;;;;;;56.23;25.10;;;;;;;-1.83;56.88;101215.47;5016147;27;96794;-87
2024/01/11 08:25:09;;;;;;;56.80;23.67;;;;;;;-1.55;56.30;101233.44;5022660;27;98696;-88
2024/01/11 08:27:35;;;;;;;51.70;22.33;;;;;;;-1.76;55.66;101189.91;5009248;27;101468;-86
2024/01/11 08:30:02;;;;;;;46.13;22.17;;;;;;;-1.40;55.97;101244.19;5035607;27;98496;-86
2024/01/11 08:32:28;;;;;;;42.87;21.80;;;;;;;-1.65;56.41;101189.41;5015986;27;97151;-87
2024/01/11 08:34:54;;;;;;;44.23;20.77;;;;;;;-1.46;56.38;101225.97;5015985;27;97222;-86
2024/01/11 08:37:19;;;;;;;42.53;21.00;;;;;;;-1.77;56.06;101207.06;4996100;28;101095;-88
2024/01/11 08:39:46;;;;;;;43.43;20.27;;;;;;;-1.79;56.27;101188.09;4999137;27;101560;-88
2024/01/11 08:42:12;;;;;;;44.23;19.97;;;;;;;-1.64;56.52;101227.19;5027031;27;96998;-88
2024/01/11 08:44:44;;;;;;;44.03;20.80;;;;;;;-1.72;56.52;101196.88;5032450;27;96833;-87
2024/01/11 08:47:10;;;;;;;44.80;18.93;;;;;;;-1.45;57.11;101232.91;4995491;28;100149;-84
2024/01/11 08:49:39;;;;;;;45.67;20.50;;;;;;;-1.47;56.65;101214.81;5029747;27;97175;-86
2024/01/11 08:52:11;;;;;;;46.07;18.63;;;;;;;-1.63;56.49;101192.00;5043351;27;97419;-85
2024/01/11 08:54:47;;;;;;;39.27;18.47;;;;;;;-1.60;56.45;101180.09;5011811;27;97049;-87
2024/01/11 08:57:13;;;;;;;38.87;18.07;;;;;;;-1.71;56.55;101180.63;4990500;27;97094;-86
2024/01/11 08:59:38;;;;;;;40.27;18.30;;;;;;;-1.87;56.70;101149.25;5024268;28;101042;-85
2024/01/11 09:02:13;;;;;;;43.73;17.90;;;;;;;-1.84;55.92;101133.91;5026344;27;97137;-84
2024/01/11 09:04:39;;;;;;;38.50;18.07;;;;;;;-1.72;56.34;101147.97;4999676;27;97794;-86
2024/01/11 09:07:04;;;;;;;35.40;17.00;;;;;;;-1.34;56.12;101222.88;5015119;27;100224;-86
2024/01/11 09:09:30;;;;;;;34.40;17.93;;;;;;;-1.32;56.34;101254.72;5032331;27;101932;-85
2024/01/11 09:12:26;;;;;;;38.63;17.30;;;;;;;-1.39;56.41;101238.22;4994898;27;97011;-87
2024/01/11 09:15:07;;;;;;;37.47;17.47;;;;;;;-1.70;55.70;101175.50;5021400;27;96867;-87
2024/01/11 09:17:37;;;;;;;44.87;18.80;;;;;;;-1.24;55.70;101218.03;4994820;27;97575;-86
2024/01/11 09:20:03;;;;;;;41.20;17.70;;;;;;;-1.37;55.61;101196.22;5009382;27;100099;-88
2024/01/11 09:22:29;;;;;;;39.20;19.67;;;;;;;-1.02;55.58;101219.53;5009829;27;97037;-84
2024/01/11 09:24:54;;;;;;;39.80;17.87;;;;;;;-0.98;55.96;101220.47;5015011;27;96843;-86
2024/01/11 09:27:20;;;;;;;51.60;20.07;;;;;;;-1.11;55.22;101200.34;4997561;27;100867;-86
2024/01/11 09:29:46;;;;;;;42.37;19.43;;;;;;;-0.87;55.11;101211.34;5029663;27;97999;-87
2024/01/11 09:32:14;;;;;;;46.87;20.97;;;;;;;-0.70;54.62;101229.78;5005356;27;97464;-86
2024/01/11 09:35:00;;;;;;;44.20;20.83;;;;;;;-0.70;54.62;101235.84;4986659;27;97605;-87
2024/01/11 09:37:38;;;;;;;48.45;19.02;;;;;;;-1.38;54.98;101149.81;5019748;27;98254;-86
2024/01/11 09:41:09;;;;;;;43.27;20.03;;;;;;;-1.19;54.38;101198.44;5004291;27;98227;-87
2024/01/11 09:44:14;;;;;;;43.10;18.73;;;;;;;-1.09;53.93;101203.84;5012457;27;97319;-87
2024/01/11 09:46:52;;;;;;;41.70;17.07;;;;;;;-1.28;53.49;101146.66;5009390;27;96905;-87
2024/01/11 09:49:22;;;;;;;42.03;19.00;;;;;;;-1.21;53.59;101137.38;4999117;27;98308;-89
2024/01/11 09:51:48;;;;;;;49.53;17.47;;;;;;;-0.97;53.71;101196.44;5012703;27;97926;-88
2024/01/11 09:54:14;;;;;;;52.43;17.27;;;;;;;-0.68;53.19;101228.13;5051719;27;97313;-86
2024/01/11 09:56:40;;;;;;;38.30;16.43;;;;;;;-0.79;52.87;101212.38;5031879;27;96869;-88
2024/01/11 09:59:07;;;;;;;37.67;18.20;;;;;;;-0.66;52.80;101228.19;5029675;27;102138;-88
2024/01/11 10:01:32;;;;;;;40.83;17.20;;;;;;;-0.59;52.63;101248.13;5013665;27;97194;-86
2024/01/11 10:03:58;;;;;;;37.97;17.77;;;;;;;-0.51;52.39;101233.75;5025206;27;98038;-86
2024/01/11 10:06:24;;;;;;;36.77;16.40;;;;;;;-0.48;51.63;101202.88;5023432;27;97352;-85
2024/01/11 10:08:49;;;;;;;37.93;17.57;;;;;;;-0.54;51.17;101205.28;5015599;27;101711;-85
2024/01/11 10:11:18;;;;;;;38.07;17.27;;;;;;;-0.36;51.09;101220.34;5027985;27;98397;-87
2024/01/11 10:13:44;;;;;;;54.33;16.80;;;;;;;-0.40;51.13;101215.97;5042889;27;96796;-88
2024/01/11 10:16:15;;;;;;;86.93;25.50;;;;;;;-0.40;51.08;101215.97;5002891;27;97109;-86
2024/01/11 10:18:44;;;;;;;36.33;17.83;;;;;;;-0.26;50.84;101196.53;5017701;27;99300;-88
2024/01/11 10:21:10;;;;;;;38.97;18.20;;;;;;;-0.11;50.86;101212.38;5031123;27;97805;-88
2024/01/11 10:23:36;;;;;;;43.40;17.53;;;;;;;-0.21;51.08;101186.31;5019436;27;97345;-86
2024/01/11 10:26:02;;;;;;;38.37;18.00;;;;;;;-0.18;50.91;101200.16;5026303;27;96813;-84
2024/01/11 10:28:28;;;;;;;37.17;18.60;;;;;;;-0.20;50.84;101209.59;5028225;27;97436;-88
2024/01/11 10:30:54;;;;;;;40.50;19.23;;;;;;;-0.16;50.55;101201.06;5053728;27;97528;-87
2024/01/11 10:33:23;;;;;;;59.57;18.53;;;;;;;-0.21;50.56;101163.06;5008987;27;96817;-88
2024/01/11 10:35:49;;;;;;;43.87;17.23;;;;;;;-0.23;50.48;101152.72;4998865;27;96954;-88
2024/01/11 10:38:16;;;;;;;44.30;18.07;;;;;;;-0.15;49.59;101176.97;5018327;27;99013;-87
2024/01/11 10:40:42;;;;;;;38.77;18.27;;;;;;;-0.47;49.79;101143.59;4999224;27;101352;-87
2024/01/11 10:43:12;;;;;;;39.83;17.67;;;;;;;-0.35;50.06;101175.66;5001852;27;96886;-88
2024/01/11 10:45:41;;;;;;;33.40;15.83;;;;;;;-0.48;49.90;101144.41;5016226;27;96856;-87
2024/01/11 10:48:16;;;;;;;36.43;14.97;;;;;;;-0.53;50.24;101124.50;5001668;27;101747;-87
2024/01/11 10:50:46;;;;;;;39.27;18.67;;;;;;;-0.28;50.05;101155.19;5016945;27;99969;-85
2024/01/11 10:53:50;;;;;;;38.37;16.80;;;;;;;-0.50;49.78;101135.75;4999636;27;98049;-82
2024/01/11 10:56:16;;;;;;;36.07;15.90;;;;;;;-0.43;49.59;101157.41;5034077;27;97924;-82
2024/01/11 10:58:43;;;;;;;33.10;15.43;;;;;;;-0.44;49.40;101150.50;5016993;27;98070;-84